sensor_id;sensor_type;location;lat;lon;timestamp;temperature;humidity
52267;DHT22;38223;50.940;4.034;2022-09-09T00:00:37;16.20;99.90
52267;DHT22;38223;50.940;4.034;2022-09-09T00:03:24;16.30;99.90
52267;DHT22;38223;50.940;4.034;2022-09-09T00:08:42;16.20;99.90
52267;DHT22;38223;50.940;4.034;2022-09-09T00:11:08;16.10;99.90
52267;DHT22;38223;50.940;4.034;2022-09-09T00:13:42;16.10;99.90
52267;DHT22;38223;50.940;4.034;2022-09-09T00:16:28;16.20;99.90
52267;DHT22;38223;50.940;4.034;2022-09-09T00:19:10;16.10;99.90
52267;DHT22;38223;50.940;4.034;2022-09-09T00:21:53;16.00;99.90
52267;DHT22;38223;50.940;4.034;2022-09-09T00:24:27;16.00;99.90
52267;DHT22;38223;50.940;4.034;2022-09-09T00:27:01;16.00;99.90
52267;DHT22;38223;50.940;4.034;2022-09-09T00:29:33;16.00;99.90
52267;DHT22;38223;50.940;4.034;2022-09-09T00:32:16;16.00;99.90
52267;DHT22;38223;50.940;4.034;2022-09-09T00:34:39;16.00;99.90
52267;DHT22;38223;50.940;4.034;2022-09-09T00:37:10;16.00;99.90
52267;DHT22;38223;50.940;4.034;2022-09-09T00:39:45;16.00;99.90
52267;DHT22;38223;50.940;4.034;2022-09-09T00:42:20;16.00;99.90
52267;DHT22;38223;50.940;4.034;2022-09-09T00:44:56;16.00;99.90
52267;DHT22;38223;50.940;4.034;2022-09-09T00:47:39;16.00;99.90
52267;DHT22;38223;50.940;4.034;2022-09-09T00:50:35;16.00;99.90
52267;DHT22;38223;50.940;4.034;2022-09-09T00:53:30;16.00;99.90
52267;DHT22;38223;50.940;4.034;2022-09-09T00:56:20;16.00;99.90
52267;DHT22;38223;50.940;4.034;2022-09-09T00:58:57;16.00;99.90
52267;DHT22;38223;50.940;4.034;2022-09-09T01:01:32;15.90;99.90
52267;DHT22;38223;50.940;4.034;2022-09-09T01:04:06;16.00;99.90
52267;DHT22;38223;50.940;4.034;2022-09-09T01:06:38;16.00;99.90
52267;DHT22;38223;50.940;4.034;2022-09-09T01:09:27;16.10;99.90
52267;DHT22;38223;50.940;4.034;2022-09-09T01:14:45;16.10;99.90
52267;DHT22;38223;50.940;4.034;2022-09-09T01:17:28;16.10;99.90
52267;DHT22;38223;50.940;4.034;2022-09-09T01:20:01;16.10;99.90
52267;DHT22;38223;50.940;4.034;2022-09-09T01:28:21;16.20;99.90
52267;DHT22;38223;50.940;4.034;2022-09-09T01:30:53;16.10;99.90
52267;DHT22;38223;50.940;4.034;2022-09-09T01:33:25;16.10;99.90
52267;DHT22;38223;50.940;4.034;2022-09-09T01:36:12;16.10;99.90
52267;DHT22;38223;50.940;4.034;2022-09-09T01:38:43;16.10;99.90
52267;DHT22;38223;50.940;4.034;2022-09-09T01:41:15;16.10;99.90
52267;DHT22;38223;50.940;4.034;2022-09-09T01:43:48;16.10;99.90
52267;DHT22;38223;50.940;4.034;2022-09-09T01:46:23;16.10;99.90
52267;DHT22;38223;50.940;4.034;2022-09-09T01:48:56;16.10;99.90
52267;DHT22;38223;50.940;4.034;2022-09-09T01:51:29;16.10;99.90
52267;DHT22;38223;50.940;4.034;2022-09-09T01:54:02;16.20;99.90
52267;DHT22;38223;50.940;4.034;2022-09-09T01:57:06;16.20;99.90
52267;DHT22;38223;50.940;4.034;2022-09-09T02:00:01;16.10;99.90
52267;DHT22;38223;50.940;4.034;2022-09-09T02:05:41;16.00;99.90
52267;DHT22;38223;50.940;4.034;2022-09-09T02:08:25;16.00;99.90
52267;DHT22;38223;50.940;4.034;2022-09-09T02:11:11;16.00;99.90
52267;DHT22;38223;50.940;4.034;2022-09-09T02:13:43;16.00;99.90
52267;DHT22;38223;50.940;4.034;2022-09-09T02:16:25;16.00;99.90
52267;DHT22;38223;50.940;4.034;2022-09-09T02:19:29;16.00;99.90
52267;DHT22;38223;50.940;4.034;2022-09-09T02:22:07;16.00;99.90
52267;DHT22;38223;50.940;4.034;2022-09-09T02:30:39;16.00;99.90
52267;DHT22;38223;50.940;4.034;2022-09-09T02:33:13;16.10;99.90
52267;DHT22;38223;50.940;4.034;2022-09-09T02:35:48;16.00;99.90
52267;DHT22;38223;50.940;4.034;2022-09-09T02:38:24;16.10;99.90
52267;DHT22;38223;50.940;4.034;2022-09-09T02:40:55;16.20;99.90
52267;DHT22;38223;50.940;4.034;2022-09-09T02:43:30;16.20;99.90
52267;DHT22;38223;50.940;4.034;2022-09-09T02:48:56;16.20;99.90
52267;DHT22;38223;50.940;4.034;2022-09-09T02:51:55;16.20;99.90
52267;DHT22;38223;50.940;4.034;2022-09-09T02:54:20;16.30;99.90
52267;DHT22;38223;50.940;4.034;2022-09-09T02:56:56;16.30;99.90
52267;DHT22;38223;50.940;4.034;2022-09-09T02:59:26;16.40;99.90
52267;DHT22;38223;50.940;4.034;2022-09-09T03:02:01;16.30;99.90
52267;DHT22;38223;50.940;4.034;2022-09-09T03:04:29;16.30;99.90
52267;DHT22;38223;50.940;4.034;2022-09-09T03:07:03;16.20;99.90
52267;DHT22;38223;50.940;4.034;2022-09-09T03:09:37;16.20;99.90
52267;DHT22;38223;50.940;4.034;2022-09-09T03:12:13;16.20;99.90
52267;DHT22;38223;50.940;4.034;2022-09-09T03:14:40;16.30;99.90
52267;DHT22;38223;50.940;4.034;2022-09-09T03:17:14;16.30;99.90
52267;DHT22;38223;50.940;4.034;2022-09-09T03:19:44;16.20;99.90
52267;DHT22;38223;50.940;4.034;2022-09-09T03:22:17;16.30;99.90
52267;DHT22;38223;50.940;4.034;2022-09-09T03:24:48;16.30;99.90
52267;DHT22;38223;50.940;4.034;2022-09-09T03:27:22;16.20;99.90
52267;DHT22;38223;50.940;4.034;2022-09-09T03:29:56;16.30;99.90
52267;DHT22;38223;50.940;4.034;2022-09-09T03:32:26;16.30;99.90
52267;DHT22;38223;50.940;4.034;2022-09-09T03:34:59;16.40;99.90
52267;DHT22;38223;50.940;4.034;2022-09-09T03:37:31;16.40;99.90
52267;DHT22;38223;50.940;4.034;2022-09-09T03:40:03;16.30;99.90
52267;DHT22;38223;50.940;4.034;2022-09-09T03:42:40;16.30;99.90
52267;DHT22;38223;50.940;4.034;2022-09-09T03:45:12;16.30;99.90
52267;DHT22;38223;50.940;4.034;2022-09-09T03:47:46;16.30;99.90
52267;DHT22;38223;50.940;4.034;2022-09-09T03:50:20;16.40;99.90
52267;DHT22;38223;50.940;4.034;2022-09-09T03:52:50;16.40;99.90
52267;DHT22;38223;50.940;4.034;2022-09-09T03:55:23;16.40;99.90
52267;DHT22;38223;50.940;4.034;2022-09-09T03:57:58;16.40;99.90
52267;DHT22;38223;50.940;4.034;2022-09-09T04:00:28;16.40;99.90
52267;DHT22;38223;50.940;4.034;2022-09-09T04:02:59;16.40;99.90
52267;DHT22;38223;50.940;4.034;2022-09-09T04:05:32;16.40;99.90
52267;DHT22;38223;50.940;4.034;2022-09-09T04:08:03;16.40;99.90
52267;DHT22;38223;50.940;4.034;2022-09-09T04:10:37;16.30;99.90
52267;DHT22;38223;50.940;4.034;2022-09-09T04:13:09;16.30;99.90
52267;DHT22;38223;50.940;4.034;2022-09-09T04:15:40;16.30;99.90
52267;DHT22;38223;50.940;4.034;2022-09-09T04:18:13;16.40;99.90
52267;DHT22;38223;50.940;4.034;2022-09-09T04:20:45;16.40;99.90
52267;DHT22;38223;50.940;4.034;2022-09-09T04:23:18;16.40;99.90
52267;DHT22;38223;50.940;4.034;2022-09-09T04:25:51;16.40;99.90
52267;DHT22;38223;50.940;4.034;2022-09-09T04:28:29;16.40;99.90
52267;DHT22;38223;50.940;4.034;2022-09-09T04:31:14;16.40;99.90
52267;DHT22;38223;50.940;4.034;2022-09-09T04:33:40;16.50;99.90
52267;DHT22;38223;50.940;4.034;2022-09-09T04:36:11;16.60;99.90
52267;DHT22;38223;50.940;4.034;2022-09-09T04:38:46;16.50;99.90
52267;DHT22;38223;50.940;4.034;2022-09-09T04:41:17;16.50;99.90
52267;DHT22;38223;50.940;4.034;2022-09-09T04:43:53;16.40;99.90
52267;DHT22;38223;50.940;4.034;2022-09-09T04:46:22;16.40;99.90
52267;DHT22;38223;50.940;4.034;2022-09-09T04:48:53;16.50;99.90
52267;DHT22;38223;50.940;4.034;2022-09-09T04:51:26;16.40;99.90
52267;DHT22;38223;50.940;4.034;2022-09-09T04:53:58;16.40;99.90
52267;DHT22;38223;50.940;4.034;2022-09-09T04:56:36;16.50;99.90
52267;DHT22;38223;50.940;4.034;2022-09-09T04:59:04;16.50;99.90
52267;DHT22;38223;50.940;4.034;2022-09-09T05:01:38;16.50;99.90
52267;DHT22;38223;50.940;4.034;2022-09-09T05:04:13;16.40;99.90
52267;DHT22;38223;50.940;4.034;2022-09-09T05:06:43;16.30;99.90
52267;DHT22;38223;50.940;4.034;2022-09-09T05:09:17;16.30;99.90
52267;DHT22;38223;50.940;4.034;2022-09-09T05:11:48;16.30;99.90
52267;DHT22;38223;50.940;4.034;2022-09-09T05:14:19;16.40;99.90
52267;DHT22;38223;50.940;4.034;2022-09-09T05:16:50;16.50;99.90
52267;DHT22;38223;50.940;4.034;2022-09-09T05:19:22;16.50;99.90
52267;DHT22;38223;50.940;4.034;2022-09-09T05:21:55;16.40;99.90
52267;DHT22;38223;50.940;4.034;2022-09-09T05:24:28;16.40;99.90
52267;DHT22;38223;50.940;4.034;2022-09-09T05:27:03;16.40;99.90
52267;DHT22;38223;50.940;4.034;2022-09-09T05:29:39;16.50;99.90
52267;DHT22;38223;50.940;4.034;2022-09-09T05:32:13;16.50;99.90
52267;DHT22;38223;50.940;4.034;2022-09-09T05:34:47;16.40;99.90
52267;DHT22;38223;50.940;4.034;2022-09-09T05:37:22;16.40;99.90
52267;DHT22;38223;50.940;4.034;2022-09-09T05:39:51;16.40;99.90
52267;DHT22;38223;50.940;4.034;2022-09-09T05:42:24;16.40;99.90
52267;DHT22;38223;50.940;4.034;2022-09-09T05:44:56;16.40;99.90
52267;DHT22;38223;50.940;4.034;2022-09-09T05:47:24;16.40;99.90
52267;DHT22;38223;50.940;4.034;2022-09-09T05:49:56;16.40;99.90
52267;DHT22;38223;50.940;4.034;2022-09-09T05:52:30;16.40;99.90
52267;DHT22;38223;50.940;4.034;2022-09-09T05:54:58;16.40;99.90
52267;DHT22;38223;50.940;4.034;2022-09-09T05:57:32;16.40;99.90
52267;DHT22;38223;50.940;4.034;2022-09-09T06:00:04;16.50;99.90
52267;DHT22;38223;50.940;4.034;2022-09-09T06:02:39;16.50;99.90
52267;DHT22;38223;50.940;4.034;2022-09-09T06:05:11;16.50;99.90
52267;DHT22;38223;50.940;4.034;2022-09-09T06:07:42;16.60;99.90
52267;DHT22;38223;50.940;4.034;2022-09-09T06:10:16;16.60;99.90
52267;DHT22;38223;50.940;4.034;2022-09-09T06:12:47;16.60;99.90
52267;DHT22;38223;50.940;4.034;2022-09-09T06:15:17;16.60;99.90
52267;DHT22;38223;50.940;4.034;2022-09-09T06:17:53;16.60;99.90
52267;DHT22;38223;50.940;4.034;2022-09-09T06:20:19;16.50;99.90
52267;DHT22;38223;50.940;4.034;2022-09-09T06:22:50;16.60;99.90
52267;DHT22;38223;50.940;4.034;2022-09-09T06:25:27;16.60;99.90
52267;DHT22;38223;50.940;4.034;2022-09-09T06:27:55;16.60;99.90
52267;DHT22;38223;50.940;4.034;2022-09-09T06:30:27;16.60;99.90
52267;DHT22;38223;50.940;4.034;2022-09-09T06:32:57;16.70;99.90
52267;DHT22;38223;50.940;4.034;2022-09-09T06:35:28;16.60;99.90
52267;DHT22;38223;50.940;4.034;2022-09-09T06:38:01;16.70;99.90
52267;DHT22;38223;50.940;4.034;2022-09-09T06:40:33;16.70;99.90
52267;DHT22;38223;50.940;4.034;2022-09-09T06:43:07;16.70;99.90
52267;DHT22;38223;50.940;4.034;2022-09-09T06:45:38;16.80;99.90
52267;DHT22;38223;50.940;4.034;2022-09-09T06:48:07;16.80;99.90
52267;DHT22;38223;50.940;4.034;2022-09-09T06:50:36;16.90;99.90
52267;DHT22;38223;50.940;4.034;2022-09-09T06:53:07;16.90;99.90
52267;DHT22;38223;50.940;4.034;2022-09-09T06:55:40;16.90;99.90
52267;DHT22;38223;50.940;4.034;2022-09-09T06:58:11;17.00;99.90
52267;DHT22;38223;50.940;4.034;2022-09-09T07:00:40;17.10;99.90
52267;DHT22;38223;50.940;4.034;2022-09-09T07:03:13;17.00;99.90
52267;DHT22;38223;50.940;4.034;2022-09-09T07:05:43;17.00;99.90
52267;DHT22;38223;50.940;4.034;2022-09-09T07:08:14;17.00;99.90
52267;DHT22;38223;50.940;4.034;2022-09-09T07:10:44;17.00;99.90
52267;DHT22;38223;50.940;4.034;2022-09-09T07:13:16;17.00;99.90
52267;DHT22;38223;50.940;4.034;2022-09-09T07:15:49;17.00;99.90
52267;DHT22;38223;50.940;4.034;2022-09-09T07:18:22;17.10;99.90
52267;DHT22;38223;50.940;4.034;2022-09-09T07:20:56;17.00;99.90
52267;DHT22;38223;50.940;4.034;2022-09-09T07:23:28;17.00;99.90
52267;DHT22;38223;50.940;4.034;2022-09-09T07:26:11;16.90;99.90
52267;DHT22;38223;50.940;4.034;2022-09-09T07:28:42;16.80;99.90
52267;DHT22;38223;50.940;4.034;2022-09-09T07:31:19;16.70;99.90
52267;DHT22;38223;50.940;4.034;2022-09-09T07:33:48;16.60;99.90
52267;DHT22;38223;50.940;4.034;2022-09-09T07:36:30;16.70;99.90
52267;DHT22;38223;50.940;4.034;2022-09-09T07:39:00;16.70;99.90
52267;DHT22;38223;50.940;4.034;2022-09-09T07:41:34;16.70;99.90
52267;DHT22;38223;50.940;4.034;2022-09-09T07:44:16;16.80;99.90
52267;DHT22;38223;50.940;4.034;2022-09-09T07:46:49;16.90;99.90
52267;DHT22;38223;50.940;4.034;2022-09-09T07:49:21;17.00;99.90
52267;DHT22;38223;50.940;4.034;2022-09-09T07:51:59;17.00;99.90
52267;DHT22;38223;50.940;4.034;2022-09-09T07:54:27;17.00;99.90
52267;DHT22;38223;50.940;4.034;2022-09-09T07:56:59;17.10;99.90
52267;DHT22;38223;50.940;4.034;2022-09-09T07:59:31;17.10;99.90
52267;DHT22;38223;50.940;4.034;2022-09-09T08:02:08;17.10;99.90
52267;DHT22;38223;50.940;4.034;2022-09-09T08:04:45;17.20;99.90
52267;DHT22;38223;50.940;4.034;2022-09-09T08:07:13;17.30;99.90
52267;DHT22;38223;50.940;4.034;2022-09-09T08:09:46;17.40;99.90
52267;DHT22;38223;50.940;4.034;2022-09-09T08:12:16;17.40;99.90
52267;DHT22;38223;50.940;4.034;2022-09-09T08:14:50;17.40;99.90
52267;DHT22;38223;50.940;4.034;2022-09-09T08:17:23;17.40;99.90
52267;DHT22;38223;50.940;4.034;2022-09-09T08:19:56;17.40;99.90
52267;DHT22;38223;50.940;4.034;2022-09-09T08:22:28;17.30;99.90
52267;DHT22;38223;50.940;4.034;2022-09-09T08:25:01;17.20;99.90
52267;DHT22;38223;50.940;4.034;2022-09-09T08:27:30;17.20;99.90
52267;DHT22;38223;50.940;4.034;2022-09-09T08:30:03;17.30;99.90
52267;DHT22;38223;50.940;4.034;2022-09-09T08:32:40;17.40;99.90
52267;DHT22;38223;50.940;4.034;2022-09-09T08:35:09;17.30;99.90
52267;DHT22;38223;50.940;4.034;2022-09-09T08:37:41;17.30;99.90
52267;DHT22;38223;50.940;4.034;2022-09-09T08:40:16;17.20;99.90
52267;DHT22;38223;50.940;4.034;2022-09-09T08:42:44;17.20;99.90
52267;DHT22;38223;50.940;4.034;2022-09-09T08:45:25;17.20;99.90
52267;DHT22;38223;50.940;4.034;2022-09-09T08:48:06;17.20;99.90
52267;DHT22;38223;50.940;4.034;2022-09-09T08:50:37;17.20;99.90
52267;DHT22;38223;50.940;4.034;2022-09-09T08:53:22;17.10;99.90
52267;DHT22;38223;50.940;4.034;2022-09-09T08:55:57;17.20;99.90
52267;DHT22;38223;50.940;4.034;2022-09-09T08:58:32;17.30;99.90
52267;DHT22;38223;50.940;4.034;2022-09-09T09:01:17;17.40;99.90
52267;DHT22;38223;50.940;4.034;2022-09-09T09:12:11;17.20;99.90
52267;DHT22;38223;50.940;4.034;2022-09-09T09:14:40;17.20;99.90
52267;DHT22;38223;50.940;4.034;2022-09-09T09:17:12;17.40;99.90
52267;DHT22;38223;50.940;4.034;2022-09-09T09:19:48;17.40;99.90
52267;DHT22;38223;50.940;4.034;2022-09-09T09:25:12;17.60;99.90
52267;DHT22;38223;50.940;4.034;2022-09-09T09:28:13;17.60;99.90
52267;DHT22;38223;50.940;4.034;2022-09-09T09:30:46;17.60;99.90
52267;DHT22;38223;50.940;4.034;2022-09-09T09:36:24;17.60;99.90
52267;DHT22;38223;50.940;4.034;2022-09-09T09:38:58;17.60;99.90
52267;DHT22;38223;50.940;4.034;2022-09-09T09:41:38;17.60;99.90
52267;DHT22;38223;50.940;4.034;2022-09-09T09:44:28;17.70;99.90
52267;DHT22;38223;50.940;4.034;2022-09-09T09:47:19;17.80;99.90
52267;DHT22;38223;50.940;4.034;2022-09-09T09:49:59;17.80;99.90
52267;DHT22;38223;50.940;4.034;2022-09-09T09:52:31;17.80;99.90
52267;DHT22;38223;50.940;4.034;2022-09-09T09:55:11;17.90;99.90
52267;DHT22;38223;50.940;4.034;2022-09-09T09:57:41;18.00;99.90
52267;DHT22;38223;50.940;4.034;2022-09-09T10:00:20;18.20;99.90
52267;DHT22;38223;50.940;4.034;2022-09-09T10:02:53;18.30;99.90
52267;DHT22;38223;50.940;4.034;2022-09-09T10:05:30;18.40;99.90
52267;DHT22;38223;50.940;4.034;2022-09-09T10:08:15;18.50;99.90
52267;DHT22;38223;50.940;4.034;2022-09-09T10:16:57;18.40;99.90
52267;DHT22;38223;50.940;4.034;2022-09-09T10:19:32;18.50;99.90
52267;DHT22;38223;50.940;4.034;2022-09-09T10:27:44;18.30;99.90
52267;DHT22;38223;50.940;4.034;2022-09-09T10:30:21;18.30;99.90
52267;DHT22;38223;50.940;4.034;2022-09-09T10:35:35;18.30;99.90
52267;DHT22;38223;50.940;4.034;2022-09-09T10:38:15;18.40;99.90
52267;DHT22;38223;50.940;4.034;2022-09-09T10:41:00;18.50;99.90
52267;DHT22;38223;50.940;4.034;2022-09-09T10:46:58;18.40;99.90
52267;DHT22;38223;50.940;4.034;2022-09-09T10:55:16;18.40;99.90
52267;DHT22;38223;50.940;4.034;2022-09-09T10:57:48;18.50;99.90
52267;DHT22;38223;50.940;4.034;2022-09-09T11:00:36;18.50;99.90
52267;DHT22;38223;50.940;4.034;2022-09-09T11:03:03;18.70;99.90
52267;DHT22;38223;50.940;4.034;2022-09-09T11:05:47;18.80;99.90
52267;DHT22;38223;50.940;4.034;2022-09-09T11:08:19;18.80;99.90
52267;DHT22;38223;50.940;4.034;2022-09-09T11:21:50;19.30;99.90
52267;DHT22;38223;50.940;4.034;2022-09-09T11:24:48;19.30;99.90
52267;DHT22;38223;50.940;4.034;2022-09-09T11:27:13;19.40;99.90
52267;DHT22;38223;50.940;4.034;2022-09-09T11:32:57;19.30;99.90
52267;DHT22;38223;50.940;4.034;2022-09-09T11:38:48;19.00;99.90
52267;DHT22;38223;50.940;4.034;2022-09-09T11:41:22;18.80;99.90
52267;DHT22;38223;50.940;4.034;2022-09-09T11:44:08;18.80;99.90
52267;DHT22;38223;50.940;4.034;2022-09-09T11:46:36;18.80;99.90
52267;DHT22;38223;50.940;4.034;2022-09-09T11:52:37;19.10;99.90
52267;DHT22;38223;50.940;4.034;2022-09-09T11:54:54;19.20;99.90
52267;DHT22;38223;50.940;4.034;2022-09-09T11:57:25;19.20;99.90
52267;DHT22;38223;50.940;4.034;2022-09-09T11:59:55;19.30;99.90
52267;DHT22;38223;50.940;4.034;2022-09-09T12:02:32;19.40;99.90
52267;DHT22;38223;50.940;4.034;2022-09-09T12:05:11;19.30;99.90
52267;DHT22;38223;50.940;4.034;2022-09-09T12:10:35;19.50;99.90
52267;DHT22;38223;50.940;4.034;2022-09-09T12:13:20;19.70;99.90
52267;DHT22;38223;50.940;4.034;2022-09-09T12:15:59;19.70;99.90
52267;DHT22;38223;50.940;4.034;2022-09-09T12:18:37;19.70;99.90
52267;DHT22;38223;50.940;4.034;2022-09-09T12:24:15;19.70;99.90
52267;DHT22;38223;50.940;4.034;2022-09-09T12:26:52;19.70;99.90
52267;DHT22;38223;50.940;4.034;2022-09-09T12:29:40;19.60;99.90
52267;DHT22;38223;50.940;4.034;2022-09-09T12:32:12;19.70;99.90
52267;DHT22;38223;50.940;4.034;2022-09-09T12:34:52;19.60;99.90
52267;DHT22;38223;50.940;4.034;2022-09-09T12:40:00;19.70;99.90
52267;DHT22;38223;50.940;4.034;2022-09-09T12:42:30;19.80;99.90
52267;DHT22;38223;50.940;4.034;2022-09-09T12:45:14;19.90;99.90
52267;DHT22;38223;50.940;4.034;2022-09-09T12:50:22;20.00;99.90
52267;DHT22;38223;50.940;4.034;2022-09-09T12:52:56;20.10;99.90
52267;DHT22;38223;50.940;4.034;2022-09-09T12:55:31;20.10;99.90
52267;DHT22;38223;50.940;4.034;2022-09-09T12:58:05;20.00;99.90
52267;DHT22;38223;50.940;4.034;2022-09-09T13:00:48;19.80;99.90
52267;DHT22;38223;50.940;4.034;2022-09-09T13:03:19;19.80;99.90
52267;DHT22;38223;50.940;4.034;2022-09-09T13:05:53;19.80;99.90
52267;DHT22;38223;50.940;4.034;2022-09-09T13:11:36;20.20;99.90
52267;DHT22;38223;50.940;4.034;2022-09-09T13:14:12;20.30;99.90
52267;DHT22;38223;50.940;4.034;2022-09-09T13:16:40;20.30;99.90
52267;DHT22;38223;50.940;4.034;2022-09-09T13:19:16;20.30;99.90
52267;DHT22;38223;50.940;4.034;2022-09-09T13:21:46;20.30;99.90
52267;DHT22;38223;50.940;4.034;2022-09-09T13:24:26;20.40;99.90
52267;DHT22;38223;50.940;4.034;2022-09-09T13:27:00;20.40;99.90
52267;DHT22;38223;50.940;4.034;2022-09-09T13:29:36;20.40;99.90
52267;DHT22;38223;50.940;4.034;2022-09-09T13:32:17;20.40;99.90
52267;DHT22;38223;50.940;4.034;2022-09-09T13:35:00;20.40;99.90
52267;DHT22;38223;50.940;4.034;2022-09-09T13:37:39;20.40;99.90
52267;DHT22;38223;50.940;4.034;2022-09-09T13:40:21;20.40;99.90
52267;DHT22;38223;50.940;4.034;2022-09-09T13:42:57;20.40;99.90
52267;DHT22;38223;50.940;4.034;2022-09-09T13:45:29;20.20;99.90
52267;DHT22;38223;50.940;4.034;2022-09-09T13:51:02;20.10;99.90
52267;DHT22;38223;50.940;4.034;2022-09-09T13:53:34;20.20;99.90
52267;DHT22;38223;50.940;4.034;2022-09-09T13:56:07;20.30;99.90
52267;DHT22;38223;50.940;4.034;2022-09-09T13:58:37;20.30;99.90
52267;DHT22;38223;50.940;4.034;2022-09-09T14:01:08;20.50;99.90
52267;DHT22;38223;50.940;4.034;2022-09-09T14:03:41;20.60;99.90
52267;DHT22;38223;50.940;4.034;2022-09-09T14:06:16;20.70;99.90
52267;DHT22;38223;50.940;4.034;2022-09-09T14:08:47;20.90;99.90
52267;DHT22;38223;50.940;4.034;2022-09-09T14:11:19;21.00;99.90
52267;DHT22;38223;50.940;4.034;2022-09-09T14:13:49;21.00;99.90
52267;DHT22;38223;50.940;4.034;2022-09-09T14:16:19;20.90;99.90
52267;DHT22;38223;50.940;4.034;2022-09-09T14:18:50;21.10;99.90
52267;DHT22;38223;50.940;4.034;2022-09-09T14:21:19;21.30;99.90
52267;DHT22;38223;50.940;4.034;2022-09-09T14:23:49;21.50;99.90
52267;DHT22;38223;50.940;4.034;2022-09-09T14:26:21;21.60;99.90
52267;DHT22;38223;50.940;4.034;2022-09-09T14:28:52;21.70;99.90
52267;DHT22;38223;50.940;4.034;2022-09-09T14:31:23;21.60;99.90
52267;DHT22;38223;50.940;4.034;2022-09-09T14:33:54;21.60;99.90
52267;DHT22;38223;50.940;4.034;2022-09-09T14:36:25;21.50;99.90
52267;DHT22;38223;50.940;4.034;2022-09-09T14:38:57;21.60;99.90
52267;DHT22;38223;50.940;4.034;2022-09-09T14:41:26;21.50;99.90
52267;DHT22;38223;50.940;4.034;2022-09-09T14:43:59;21.30;99.90
52267;DHT22;38223;50.940;4.034;2022-09-09T14:46:30;21.10;99.90
52267;DHT22;38223;50.940;4.034;2022-09-09T14:49:05;20.90;99.90
52267;DHT22;38223;50.940;4.034;2022-09-09T14:51:34;20.70;99.90
52267;DHT22;38223;50.940;4.034;2022-09-09T14:54:06;20.70;99.90
52267;DHT22;38223;50.940;4.034;2022-09-09T14:56:41;20.80;99.90
52267;DHT22;38223;50.940;4.034;2022-09-09T14:59:15;20.80;99.90
52267;DHT22;38223;50.940;4.034;2022-09-09T15:01:51;20.90;99.90
52267;DHT22;38223;50.940;4.034;2022-09-09T15:04:25;20.90;99.90
52267;DHT22;38223;50.940;4.034;2022-09-09T15:06:57;20.70;99.90
52267;DHT22;38223;50.940;4.034;2022-09-09T15:09:27;20.50;99.90
52267;DHT22;38223;50.940;4.034;2022-09-09T15:12:00;20.40;99.90
52267;DHT22;38223;50.940;4.034;2022-09-09T15:14:31;20.20;99.90
52267;DHT22;38223;50.940;4.034;2022-09-09T15:16:59;20.30;99.90
52267;DHT22;38223;50.940;4.034;2022-09-09T15:19:28;20.30;99.90
52267;DHT22;38223;50.940;4.034;2022-09-09T15:21:59;20.40;99.90
52267;DHT22;38223;50.940;4.034;2022-09-09T15:24:30;20.10;99.90
52267;DHT22;38223;50.940;4.034;2022-09-09T15:27:05;19.90;99.90
52267;DHT22;38223;50.940;4.034;2022-09-09T15:29:38;19.80;99.90
52267;DHT22;38223;50.940;4.034;2022-09-09T15:32:09;19.70;99.90
52267;DHT22;38223;50.940;4.034;2022-09-09T15:34:48;19.20;99.90
52267;DHT22;38223;50.940;4.034;2022-09-09T15:37:17;18.90;99.90
52267;DHT22;38223;50.940;4.034;2022-09-09T15:39:47;18.80;99.90
52267;DHT22;38223;50.940;4.034;2022-09-09T15:42:19;18.80;99.90
52267;DHT22;38223;50.940;4.034;2022-09-09T15:44:52;18.70;99.90
52267;DHT22;38223;50.940;4.034;2022-09-09T15:47:23;18.70;99.90
52267;DHT22;38223;50.940;4.034;2022-09-09T15:49:55;18.80;99.90
52267;DHT22;38223;50.940;4.034;2022-09-09T15:52:26;18.90;99.90
52267;DHT22;38223;50.940;4.034;2022-09-09T15:54:57;18.90;99.90
52267;DHT22;38223;50.940;4.034;2022-09-09T15:57:31;18.90;99.90
52267;DHT22;38223;50.940;4.034;2022-09-09T16:00:02;18.90;99.90
52267;DHT22;38223;50.940;4.034;2022-09-09T16:02:36;18.80;99.90
52267;DHT22;38223;50.940;4.034;2022-09-09T16:05:08;18.80;99.90
52267;DHT22;38223;50.940;4.034;2022-09-09T16:07:45;18.90;99.90
52267;DHT22;38223;50.940;4.034;2022-09-09T16:10:17;18.90;99.90
52267;DHT22;38223;50.940;4.034;2022-09-09T16:12:48;18.90;99.90
52267;DHT22;38223;50.940;4.034;2022-09-09T16:15:19;18.90;99.90
52267;DHT22;38223;50.940;4.034;2022-09-09T16:17:57;18.80;99.90
52267;DHT22;38223;50.940;4.034;2022-09-09T16:20:26;18.70;99.90
52267;DHT22;38223;50.940;4.034;2022-09-09T16:23:00;18.50;99.90
52267;DHT22;38223;50.940;4.034;2022-09-09T16:25:55;18.30;99.90
52267;DHT22;38223;50.940;4.034;2022-09-09T16:28:29;18.20;99.90
52267;DHT22;38223;50.940;4.034;2022-09-09T16:31:20;18.20;99.90
52267;DHT22;38223;50.940;4.034;2022-09-09T16:33:51;18.30;99.90
52267;DHT22;38223;50.940;4.034;2022-09-09T16:36:24;18.40;99.90
52267;DHT22;38223;50.940;4.034;2022-09-09T16:38:59;18.40;99.90
52267;DHT22;38223;50.940;4.034;2022-09-09T16:41:34;18.50;99.90
52267;DHT22;38223;50.940;4.034;2022-09-09T16:44:09;18.50;99.90
52267;DHT22;38223;50.940;4.034;2022-09-09T16:46:43;18.60;99.90
52267;DHT22;38223;50.940;4.034;2022-09-09T16:49:16;18.70;99.90
52267;DHT22;38223;50.940;4.034;2022-09-09T16:51:52;18.80;99.90
52267;DHT22;38223;50.940;4.034;2022-09-09T16:54:25;19.00;99.90
52267;DHT22;38223;50.940;4.034;2022-09-09T16:57:00;19.00;99.90
52267;DHT22;38223;50.940;4.034;2022-09-09T16:59:33;19.10;99.90
52267;DHT22;38223;50.940;4.034;2022-09-09T17:02:10;19.20;99.90
52267;DHT22;38223;50.940;4.034;2022-09-09T17:07:29;19.40;99.90
52267;DHT22;38223;50.940;4.034;2022-09-09T17:09:59;19.50;99.90
52267;DHT22;38223;50.940;4.034;2022-09-09T17:12:31;19.40;99.90
52267;DHT22;38223;50.940;4.034;2022-09-09T17:15:05;19.40;99.90
52267;DHT22;38223;50.940;4.034;2022-09-09T17:17:37;19.40;99.90
52267;DHT22;38223;50.940;4.034;2022-09-09T17:20:10;19.40;99.90
52267;DHT22;38223;50.940;4.034;2022-09-09T17:22:41;19.30;99.90
52267;DHT22;38223;50.940;4.034;2022-09-09T17:25:10;19.50;99.90
52267;DHT22;38223;50.940;4.034;2022-09-09T17:27:41;19.60;99.90
52267;DHT22;38223;50.940;4.034;2022-09-09T17:30:13;19.50;99.90
52267;DHT22;38223;50.940;4.034;2022-09-09T17:32:46;19.40;99.90
52267;DHT22;38223;50.940;4.034;2022-09-09T17:35:15;19.50;99.90
52267;DHT22;38223;50.940;4.034;2022-09-09T17:37:45;19.50;99.90
52267;DHT22;38223;50.940;4.034;2022-09-09T17:40:17;19.50;99.90
52267;DHT22;38223;50.940;4.034;2022-09-09T17:45:37;19.60;99.90
52267;DHT22;38223;50.940;4.034;2022-09-09T17:48:10;19.40;99.90
52267;DHT22;38223;50.940;4.034;2022-09-09T17:50:42;19.30;99.90
52267;DHT22;38223;50.940;4.034;2022-09-09T17:53:12;19.30;99.90
52267;DHT22;38223;50.940;4.034;2022-09-09T17:55:41;19.30;99.90
52267;DHT22;38223;50.940;4.034;2022-09-09T17:58:12;19.20;99.90